KPSP/PSP METAR and TAF weather

Enter ICAO airport designator
Station Type Date Time Source
KPSP METAR 2021/07/30 06:53 UTC NOAA

KPSP 300653Z AUTO 34003KT 10SM CLR 36/11 A2982 RMK AO2 WSHFT 0615 SLP092 T03560106 $


Station Type Date Time Source
KPSP Decoded METAR 2021/07/30 06:53 UTC NOAA

PALM SPRINGS REGIONAL AIRPORT , CA, United States (KPSP) 33-50N 116-30W 135M
Jul 30, 2021 - 02:53 AM EDT / 2021.07.30 0653 UTC
Wind: from the NNW (340 degrees) at 3 MPH (3 KT):0
Visibility: 10 mile(s):0
Sky conditions: clear
Temperature: 96.1 F (35.6 C)
Dew Point: 51.1 F (10.6 C)
Relative Humidity: 21%
Pressure (altimeter): 29.82 in. Hg (1009 hPa)
ob: KPSP 300653Z AUTO 34003KT 10SM CLR 36/11 A2982 RMK AO2 WSHFT 0615 SLP092 T03560106
cycle: 7

Station Type Date Time Source
KPSP TAF 2021/07/30 06:22 UTC NOAA

TAF KPSP 300520Z 3006/3106 33006KT P6SM SCT200
FM301800 10009KT P6SM SCT200
FM310400 32008KT P6SM SCT200

Example: see airport list